sensor_id;sensor_type;location;lat;lon;timestamp;P1;durP1;ratioP1;P2;durP2;ratioP2
10761;SDS011;5433;50.862;4.320;2023-06-19T00:01:25;4.70;;;3.60;;
10761;SDS011;5433;50.862;4.320;2023-06-19T00:03:52;5.18;;;3.83;;
10761;SDS011;5433;50.862;4.320;2023-06-19T00:06:18;5.00;;;3.60;;
10761;SDS011;5433;50.862;4.320;2023-06-19T00:11:13;4.72;;;3.80;;
10761;SDS011;5433;50.862;4.320;2023-06-19T00:13:39;5.20;;;4.05;;
10761;SDS011;5433;50.862;4.320;2023-06-19T00:16:05;3.63;;;3.30;;
10761;SDS011;5433;50.862;4.320;2023-06-19T00:18:31;5.57;;;3.80;;
10761;SDS011;5433;50.862;4.320;2023-06-19T00:21:04;4.00;;;3.60;;
10761;SDS011;5433;50.862;4.320;2023-06-19T00:23:30;4.63;;;3.40;;
10761;SDS011;5433;50.862;4.320;2023-06-19T00:25:56;5.07;;;3.80;;
10761;SDS011;5433;50.862;4.320;2023-06-19T00:28:25;4.55;;;3.72;;
10761;SDS011;5433;50.862;4.320;2023-06-19T00:30:51;4.57;;;3.63;;
10761;SDS011;5433;50.862;4.320;2023-06-19T00:33:18;4.40;;;3.72;;
10761;SDS011;5433;50.862;4.320;2023-06-19T00:35:44;3.80;;;3.22;;
10761;SDS011;5433;50.862;4.320;2023-06-19T00:38:10;5.15;;;3.40;;
10761;SDS011;5433;50.862;4.320;2023-06-19T00:40:37;3.90;;;3.03;;
10761;SDS011;5433;50.862;4.320;2023-06-19T00:43:03;3.53;;;3.00;;
10761;SDS011;5433;50.862;4.320;2023-06-19T00:45:29;4.00;;;3.08;;
10761;SDS011;5433;50.862;4.320;2023-06-19T00:47:56;4.00;;;3.05;;
10761;SDS011;5433;50.862;4.320;2023-06-19T00:50:22;5.75;;;3.58;;
10761;SDS011;5433;50.862;4.320;2023-06-19T00:52:49;3.78;;;3.15;;
10761;SDS011;5433;50.862;4.320;2023-06-19T00:55:15;3.50;;;3.20;;
10761;SDS011;5433;50.862;4.320;2023-06-19T00:57:42;4.97;;;3.10;;
10761;SDS011;5433;50.862;4.320;2023-06-19T01:00:09;3.65;;;3.28;;
10761;SDS011;5433;50.862;4.320;2023-06-19T01:02:36;4.70;;;3.10;;
10761;SDS011;5433;50.862;4.320;2023-06-19T01:05:03;3.40;;;3.10;;
10761;SDS011;5433;50.862;4.320;2023-06-19T01:10:33;5.20;;;3.42;;
10761;SDS011;5433;50.862;4.320;2023-06-19T01:13:08;4.45;;;3.50;;
10761;SDS011;5433;50.862;4.320;2023-06-19T01:15:36;4.35;;;3.38;;
10761;SDS011;5433;50.862;4.320;2023-06-19T01:18:03;5.97;;;3.75;;
10761;SDS011;5433;50.862;4.320;2023-06-19T01:20:29;5.20;;;3.78;;
10761;SDS011;5433;50.862;4.320;2023-06-19T01:22:56;3.60;;;3.30;;
10761;SDS011;5433;50.862;4.320;2023-06-19T01:25:23;4.10;;;3.22;;
10761;SDS011;5433;50.862;4.320;2023-06-19T01:27:49;4.97;;;3.80;;
10761;SDS011;5433;50.862;4.320;2023-06-19T01:30:16;4.60;;;3.50;;
10761;SDS011;5433;50.862;4.320;2023-06-19T01:35:27;4.55;;;3.60;;
10761;SDS011;5433;50.862;4.320;2023-06-19T01:37:54;4.10;;;3.40;;
10761;SDS011;5433;50.862;4.320;2023-06-19T01:40:20;4.00;;;3.60;;
10761;SDS011;5433;50.862;4.320;2023-06-19T01:42:49;6.55;;;3.70;;
10761;SDS011;5433;50.862;4.320;2023-06-19T01:45:16;4.03;;;3.60;;
10761;SDS011;5433;50.862;4.320;2023-06-19T01:47:43;5.55;;;3.75;;
10761;SDS011;5433;50.862;4.320;2023-06-19T01:50:09;4.30;;;3.80;;
10761;SDS011;5433;50.862;4.320;2023-06-19T01:52:36;4.35;;;3.95;;
10761;SDS011;5433;50.862;4.320;2023-06-19T01:55:02;4.63;;;3.80;;
10761;SDS011;5433;50.862;4.320;2023-06-19T01:57:28;4.88;;;3.85;;
10761;SDS011;5433;50.862;4.320;2023-06-19T01:59:54;4.40;;;4.00;;
10761;SDS011;5433;50.862;4.320;2023-06-19T02:02:20;5.20;;;4.05;;
10761;SDS011;5433;50.862;4.320;2023-06-19T02:04:46;4.20;;;3.80;;
10761;SDS011;5433;50.862;4.320;2023-06-19T02:07:12;5.40;;;4.10;;
10761;SDS011;5433;50.862;4.320;2023-06-19T02:09:38;6.55;;;4.20;;
10761;SDS011;5433;50.862;4.320;2023-06-19T02:12:06;6.88;;;4.60;;
10761;SDS011;5433;50.862;4.320;2023-06-19T02:14:32;5.38;;;4.10;;
10761;SDS011;5433;50.862;4.320;2023-06-19T02:16:58;5.07;;;4.57;;
10761;SDS011;5433;50.862;4.320;2023-06-19T02:19:24;6.43;;;4.50;;
10761;SDS011;5433;50.862;4.320;2023-06-19T02:21:50;7.15;;;4.53;;
10761;SDS011;5433;50.862;4.320;2023-06-19T02:24:16;4.82;;;4.20;;
10761;SDS011;5433;50.862;4.320;2023-06-19T02:26:43;7.00;;;4.60;;
10761;SDS011;5433;50.862;4.320;2023-06-19T02:29:09;6.15;;;4.55;;
10761;SDS011;5433;50.862;4.320;2023-06-19T02:31:35;6.60;;;4.50;;
10761;SDS011;5433;50.862;4.320;2023-06-19T02:34:01;8.20;;;4.57;;
10761;SDS011;5433;50.862;4.320;2023-06-19T02:36:28;5.20;;;4.63;;
10761;SDS011;5433;50.862;4.320;2023-06-19T02:38:55;6.03;;;4.90;;
10761;SDS011;5433;50.862;4.320;2023-06-19T02:41:21;6.70;;;4.90;;
10761;SDS011;5433;50.862;4.320;2023-06-19T02:43:47;7.82;;;4.75;;
10761;SDS011;5433;50.862;4.320;2023-06-19T02:46:14;7.57;;;5.22;;
10761;SDS011;5433;50.862;4.320;2023-06-19T02:48:40;7.13;;;5.20;;
10761;SDS011;5433;50.862;4.320;2023-06-19T02:51:06;6.45;;;5.13;;
10761;SDS011;5433;50.862;4.320;2023-06-19T02:53:32;6.43;;;4.90;;
10761;SDS011;5433;50.862;4.320;2023-06-19T02:55:58;7.18;;;5.38;;
10761;SDS011;5433;50.862;4.320;2023-06-19T02:58:24;9.00;;;5.10;;
10761;SDS011;5433;50.862;4.320;2023-06-19T03:00:52;6.72;;;5.95;;
10761;SDS011;5433;50.862;4.320;2023-06-19T03:03:18;6.35;;;5.30;;
10761;SDS011;5433;50.862;4.320;2023-06-19T03:05:44;7.13;;;5.65;;
10761;SDS011;5433;50.862;4.320;2023-06-19T03:08:10;6.70;;;5.63;;
10761;SDS011;5433;50.862;4.320;2023-06-19T03:10:36;8.15;;;6.93;;
10761;SDS011;5433;50.862;4.320;2023-06-19T03:13:02;9.10;;;7.07;;
10761;SDS011;5433;50.862;4.320;2023-06-19T03:15:28;8.35;;;7.50;;
10761;SDS011;5433;50.862;4.320;2023-06-19T03:17:54;9.57;;;7.32;;
10761;SDS011;5433;50.862;4.320;2023-06-19T03:20:20;8.38;;;6.65;;
10761;SDS011;5433;50.862;4.320;2023-06-19T03:22:46;7.10;;;6.40;;
10761;SDS011;5433;50.862;4.320;2023-06-19T03:25:12;6.97;;;6.28;;
10761;SDS011;5433;50.862;4.320;2023-06-19T03:27:38;7.40;;;5.75;;
10761;SDS011;5433;50.862;4.320;2023-06-19T03:30:05;6.72;;;5.15;;
10761;SDS011;5433;50.862;4.320;2023-06-19T03:32:31;8.57;;;5.78;;
10761;SDS011;5433;50.862;4.320;2023-06-19T03:34:58;6.18;;;5.60;;
10761;SDS011;5433;50.862;4.320;2023-06-19T03:37:24;6.45;;;5.78;;
10761;SDS011;5433;50.862;4.320;2023-06-19T03:39:50;7.78;;;5.93;;
10761;SDS011;5433;50.862;4.320;2023-06-19T03:42:17;7.43;;;6.00;;
10761;SDS011;5433;50.862;4.320;2023-06-19T03:44:43;8.10;;;6.82;;
10761;SDS011;5433;50.862;4.320;2023-06-19T03:47:09;8.13;;;6.70;;
10761;SDS011;5433;50.862;4.320;2023-06-19T03:49:35;8.48;;;6.47;;
10761;SDS011;5433;50.862;4.320;2023-06-19T03:52:01;7.78;;;6.97;;
10761;SDS011;5433;50.862;4.320;2023-06-19T03:54:27;8.18;;;6.78;;
10761;SDS011;5433;50.862;4.320;2023-06-19T03:56:53;7.32;;;6.43;;
10761;SDS011;5433;50.862;4.320;2023-06-19T03:59:19;7.03;;;6.32;;
10761;SDS011;5433;50.862;4.320;2023-06-19T04:01:45;6.63;;;5.85;;
10761;SDS011;5433;50.862;4.320;2023-06-19T04:04:11;8.60;;;5.95;;
10761;SDS011;5433;50.862;4.320;2023-06-19T04:06:37;7.00;;;6.32;;
10761;SDS011;5433;50.862;4.320;2023-06-19T04:09:03;6.70;;;5.78;;
10761;SDS011;5433;50.862;4.320;2023-06-19T04:11:29;6.82;;;6.18;;
10761;SDS011;5433;50.862;4.320;2023-06-19T04:13:55;6.40;;;5.80;;
10761;SDS011;5433;50.862;4.320;2023-06-19T04:16:21;6.40;;;5.70;;
10761;SDS011;5433;50.862;4.320;2023-06-19T04:18:47;6.95;;;5.47;;
10761;SDS011;5433;50.862;4.320;2023-06-19T04:21:14;6.45;;;5.85;;
10761;SDS011;5433;50.862;4.320;2023-06-19T04:23:40;6.38;;;5.55;;
10761;SDS011;5433;50.862;4.320;2023-06-19T04:26:06;6.15;;;5.55;;
10761;SDS011;5433;50.862;4.320;2023-06-19T04:28:32;6.30;;;5.70;;
10761;SDS011;5433;50.862;4.320;2023-06-19T04:30:58;6.38;;;5.45;;
10761;SDS011;5433;50.862;4.320;2023-06-19T04:33:27;8.35;;;5.85;;
10761;SDS011;5433;50.862;4.320;2023-06-19T04:35:54;6.28;;;5.68;;
10761;SDS011;5433;50.862;4.320;2023-06-19T04:38:20;6.25;;;5.75;;
10761;SDS011;5433;50.862;4.320;2023-06-19T04:40:50;7.57;;;5.90;;
10761;SDS011;5433;50.862;4.320;2023-06-19T04:43:16;7.95;;;6.20;;
10761;SDS011;5433;50.862;4.320;2023-06-19T04:45:42;6.90;;;6.20;;
10761;SDS011;5433;50.862;4.320;2023-06-19T04:48:08;7.88;;;6.68;;
10761;SDS011;5433;50.862;4.320;2023-06-19T04:50:34;8.45;;;6.63;;
10761;SDS011;5433;50.862;4.320;2023-06-19T04:53:00;8.13;;;7.32;;
10761;SDS011;5433;50.862;4.320;2023-06-19T04:55:26;8.40;;;7.55;;
10761;SDS011;5433;50.862;4.320;2023-06-19T04:57:52;8.55;;;7.63;;
10761;SDS011;5433;50.862;4.320;2023-06-19T05:00:18;8.60;;;7.70;;
10761;SDS011;5433;50.862;4.320;2023-06-19T05:02:46;10.32;;;9.13;;
10761;SDS011;5433;50.862;4.320;2023-06-19T05:05:13;10.05;;;9.00;;
10761;SDS011;5433;50.862;4.320;2023-06-19T05:07:39;12.48;;;9.75;;
10761;SDS011;5433;50.862;4.320;2023-06-19T05:10:05;10.35;;;9.25;;
10761;SDS011;5433;50.862;4.320;2023-06-19T05:12:33;10.23;;;9.23;;
10761;SDS011;5433;50.862;4.320;2023-06-19T05:14:59;11.32;;;10.07;;
10761;SDS011;5433;50.862;4.320;2023-06-19T05:17:25;12.90;;;10.10;;
10761;SDS011;5433;50.862;4.320;2023-06-19T05:19:51;12.48;;;10.50;;
10761;SDS011;5433;50.862;4.320;2023-06-19T05:22:17;11.55;;;10.35;;
10761;SDS011;5433;50.862;4.320;2023-06-19T05:24:43;12.10;;;10.80;;
10761;SDS011;5433;50.862;4.320;2023-06-19T05:27:10;12.02;;;10.13;;
10761;SDS011;5433;50.862;4.320;2023-06-19T05:29:36;12.13;;;10.88;;
10761;SDS011;5433;50.862;4.320;2023-06-19T05:32:02;11.90;;;10.80;;
10761;SDS011;5433;50.862;4.320;2023-06-19T05:34:28;13.35;;;10.95;;
10761;SDS011;5433;50.862;4.320;2023-06-19T05:36:57;13.20;;;11.90;;
10761;SDS011;5433;50.862;4.320;2023-06-19T05:39:31;13.68;;;11.98;;
10761;SDS011;5433;50.862;4.320;2023-06-19T05:42:00;15.30;;;12.73;;
10761;SDS011;5433;50.862;4.320;2023-06-19T05:44:27;15.75;;;14.15;;
10761;SDS011;5433;50.862;4.320;2023-06-19T05:46:53;16.70;;;14.00;;
10761;SDS011;5433;50.862;4.320;2023-06-19T05:49:19;16.35;;;14.75;;
10761;SDS011;5433;50.862;4.320;2023-06-19T05:51:45;15.73;;;13.93;;
10761;SDS011;5433;50.862;4.320;2023-06-19T05:54:11;18.23;;;14.50;;
10761;SDS011;5433;50.862;4.320;2023-06-19T05:56:37;15.60;;;13.88;;
10761;SDS011;5433;50.862;4.320;2023-06-19T05:59:05;17.38;;;14.18;;
10761;SDS011;5433;50.862;4.320;2023-06-19T06:01:31;13.75;;;12.40;;
10761;SDS011;5433;50.862;4.320;2023-06-19T06:03:57;15.63;;;13.95;;
10761;SDS011;5433;50.862;4.320;2023-06-19T06:06:23;17.45;;;14.57;;
10761;SDS011;5433;50.862;4.320;2023-06-19T06:08:50;16.02;;;14.43;;
10761;SDS011;5433;50.862;4.320;2023-06-19T06:11:17;16.13;;;14.38;;
10761;SDS011;5433;50.862;4.320;2023-06-19T06:13:46;15.57;;;13.95;;
10761;SDS011;5433;50.862;4.320;2023-06-19T06:16:12;15.45;;;13.85;;
10761;SDS011;5433;50.862;4.320;2023-06-19T06:18:39;15.00;;;13.50;;
10761;SDS011;5433;50.862;4.320;2023-06-19T06:21:05;14.70;;;13.25;;
10761;SDS011;5433;50.862;4.320;2023-06-19T06:26:16;16.75;;;14.30;;
10761;SDS011;5433;50.862;4.320;2023-06-19T06:28:43;15.70;;;14.02;;
10761;SDS011;5433;50.862;4.320;2023-06-19T06:31:12;15.95;;;13.85;;
10761;SDS011;5433;50.862;4.320;2023-06-19T06:33:55;15.65;;;14.10;;
10761;SDS011;5433;50.862;4.320;2023-06-19T06:36:22;16.45;;;14.77;;
10761;SDS011;5433;50.862;4.320;2023-06-19T06:38:48;16.30;;;14.70;;
10761;SDS011;5433;50.862;4.320;2023-06-19T06:41:14;16.73;;;15.02;;
10761;SDS011;5433;50.862;4.320;2023-06-19T06:43:40;16.25;;;14.68;;
10761;SDS011;5433;50.862;4.320;2023-06-19T06:46:10;16.67;;;15.05;;
10761;SDS011;5433;50.862;4.320;2023-06-19T06:48:36;16.60;;;14.32;;
10761;SDS011;5433;50.862;4.320;2023-06-19T06:51:02;16.63;;;14.32;;
10761;SDS011;5433;50.862;4.320;2023-06-19T06:53:28;15.52;;;13.93;;
10761;SDS011;5433;50.862;4.320;2023-06-19T06:55:57;17.42;;;14.20;;
10761;SDS011;5433;50.862;4.320;2023-06-19T06:58:23;16.52;;;14.60;;
10761;SDS011;5433;50.862;4.320;2023-06-19T07:00:49;16.15;;;14.57;;
10761;SDS011;5433;50.862;4.320;2023-06-19T07:03:16;16.55;;;14.88;;
10761;SDS011;5433;50.862;4.320;2023-06-19T07:05:44;17.05;;;15.02;;
10761;SDS011;5433;50.862;4.320;2023-06-19T07:08:10;16.42;;;14.73;;
10761;SDS011;5433;50.862;4.320;2023-06-19T07:10:36;16.67;;;14.95;;
10761;SDS011;5433;50.862;4.320;2023-06-19T07:13:02;17.98;;;15.68;;
10761;SDS011;5433;50.862;4.320;2023-06-19T07:15:28;17.02;;;15.23;;
10761;SDS011;5433;50.862;4.320;2023-06-19T07:17:55;17.65;;;15.80;;
10761;SDS011;5433;50.862;4.320;2023-06-19T07:20:21;18.23;;;15.13;;
10761;SDS011;5433;50.862;4.320;2023-06-19T07:22:49;17.10;;;15.30;;
10761;SDS011;5433;50.862;4.320;2023-06-19T07:25:16;15.82;;;14.30;;
10761;SDS011;5433;50.862;4.320;2023-06-19T07:27:42;16.08;;;14.25;;
10761;SDS011;5433;50.862;4.320;2023-06-19T07:30:08;15.38;;;13.77;;
10761;SDS011;5433;50.862;4.320;2023-06-19T07:32:35;15.20;;;13.60;;
10761;SDS011;5433;50.862;4.320;2023-06-19T07:35:02;14.75;;;13.23;;
10761;SDS011;5433;50.862;4.320;2023-06-19T07:37:28;15.68;;;13.02;;
10761;SDS011;5433;50.862;4.320;2023-06-19T07:39:54;13.93;;;12.10;;
10761;SDS011;5433;50.862;4.320;2023-06-19T07:42:20;13.10;;;11.57;;
10761;SDS011;5433;50.862;4.320;2023-06-19T07:44:47;15.32;;;12.20;;
10761;SDS011;5433;50.862;4.320;2023-06-19T07:47:14;13.77;;;12.05;;
10761;SDS011;5433;50.862;4.320;2023-06-19T07:49:41;12.75;;;11.45;;
10761;SDS011;5433;50.862;4.320;2023-06-19T07:52:07;12.88;;;11.55;;
10761;SDS011;5433;50.862;4.320;2023-06-19T07:54:36;12.57;;;11.27;;
10761;SDS011;5433;50.862;4.320;2023-06-19T07:57:13;13.77;;;11.48;;
10761;SDS011;5433;50.862;4.320;2023-06-19T07:59:39;12.90;;;10.98;;
10761;SDS011;5433;50.862;4.320;2023-06-19T08:02:05;12.85;;;10.82;;
10761;SDS011;5433;50.862;4.320;2023-06-19T08:04:31;12.05;;;10.75;;
10761;SDS011;5433;50.862;4.320;2023-06-19T08:06:57;11.60;;;10.32;;
10761;SDS011;5433;50.862;4.320;2023-06-19T08:09:23;11.00;;;10.00;;
10761;SDS011;5433;50.862;4.320;2023-06-19T08:11:49;11.10;;;10.00;;
10761;SDS011;5433;50.862;4.320;2023-06-19T08:14:15;11.32;;;9.73;;
10761;SDS011;5433;50.862;4.320;2023-06-19T08:16:41;11.30;;;10.20;;
10761;SDS011;5433;50.862;4.320;2023-06-19T08:19:07;11.18;;;9.40;;
10761;SDS011;5433;50.862;4.320;2023-06-19T08:21:33;10.88;;;9.40;;
10761;SDS011;5433;50.862;4.320;2023-06-19T08:23:59;12.90;;;9.50;;
10761;SDS011;5433;50.862;4.320;2023-06-19T08:26:25;10.48;;;9.48;;
10761;SDS011;5433;50.862;4.320;2023-06-19T08:28:51;10.55;;;9.00;;
10761;SDS011;5433;50.862;4.320;2023-06-19T08:31:17;11.88;;;9.45;;
10761;SDS011;5433;50.862;4.320;2023-06-19T08:33:46;11.07;;;9.90;;
10761;SDS011;5433;50.862;4.320;2023-06-19T08:36:15;12.38;;;9.50;;
10761;SDS011;5433;50.862;4.320;2023-06-19T08:38:41;11.40;;;10.05;;
10761;SDS011;5433;50.862;4.320;2023-06-19T08:41:07;11.00;;;9.90;;
10761;SDS011;5433;50.862;4.320;2023-06-19T08:43:33;10.63;;;9.52;;
10761;SDS011;5433;50.862;4.320;2023-06-19T08:46:20;11.68;;;9.05;;
10761;SDS011;5433;50.862;4.320;2023-06-19T08:48:45;10.40;;;8.90;;
10761;SDS011;5433;50.862;4.320;2023-06-19T08:51:11;10.23;;;9.20;;
10761;SDS011;5433;50.862;4.320;2023-06-19T08:53:50;11.63;;;9.30;;
10761;SDS011;5433;50.862;4.320;2023-06-19T08:56:26;10.05;;;9.05;;
10761;SDS011;5433;50.862;4.320;2023-06-19T08:58:53;10.32;;;9.20;;
10761;SDS011;5433;50.862;4.320;2023-06-19T09:01:19;9.45;;;8.45;;
10761;SDS011;5433;50.862;4.320;2023-06-19T09:03:45;10.32;;;9.13;;
10761;SDS011;5433;50.862;4.320;2023-06-19T09:06:15;11.38;;;9.02;;
10761;SDS011;5433;50.862;4.320;2023-06-19T09:08:41;9.00;;;8.10;;
10761;SDS011;5433;50.862;4.320;2023-06-19T09:11:20;10.70;;;9.13;;
10761;SDS011;5433;50.862;4.320;2023-06-19T09:13:55;9.95;;;8.10;;
10761;SDS011;5433;50.862;4.320;2023-06-19T09:16:24;10.45;;;8.10;;
10761;SDS011;5433;50.862;4.320;2023-06-19T09:19:01;9.15;;;7.68;;
10761;SDS011;5433;50.862;4.320;2023-06-19T09:21:27;9.23;;;8.02;;
10761;SDS011;5433;50.862;4.320;2023-06-19T09:23:53;11.68;;;8.02;;
10761;SDS011;5433;50.862;4.320;2023-06-19T09:26:20;9.48;;;8.32;;
10761;SDS011;5433;50.862;4.320;2023-06-19T09:28:46;9.43;;;6.97;;
10761;SDS011;5433;50.862;4.320;2023-06-19T09:31:15;9.00;;;7.63;;
10761;SDS011;5433;50.862;4.320;2023-06-19T09:33:41;8.50;;;7.60;;
10761;SDS011;5433;50.862;4.320;2023-06-19T09:36:07;8.43;;;7.53;;
10761;SDS011;5433;50.862;4.320;2023-06-19T09:38:37;8.57;;;7.22;;
10761;SDS011;5433;50.862;4.320;2023-06-19T09:41:04;8.25;;;7.18;;
10761;SDS011;5433;50.862;4.320;2023-06-19T09:43:43;8.05;;;7.22;;
10761;SDS011;5433;50.862;4.320;2023-06-19T09:46:10;9.23;;;8.00;;
10761;SDS011;5433;50.862;4.320;2023-06-19T09:48:41;13.55;;;8.05;;
10761;SDS011;5433;50.862;4.320;2023-06-19T09:53:33;11.38;;;7.90;;
10761;SDS011;5433;50.862;4.320;2023-06-19T09:56:00;9.38;;;8.13;;
10761;SDS011;5433;50.862;4.320;2023-06-19T09:58:26;8.32;;;7.45;;
10761;SDS011;5433;50.862;4.320;2023-06-19T10:00:53;9.57;;;7.60;;
10761;SDS011;5433;50.862;4.320;2023-06-19T10:03:20;8.57;;;7.55;;
10761;SDS011;5433;50.862;4.320;2023-06-19T10:05:56;10.07;;;8.32;;
10761;SDS011;5433;50.862;4.320;2023-06-19T10:08:38;9.95;;;8.70;;
10761;SDS011;5433;50.862;4.320;2023-06-19T10:11:04;10.68;;;8.90;;
10761;SDS011;5433;50.862;4.320;2023-06-19T10:13:34;9.57;;;8.55;;
10761;SDS011;5433;50.862;4.320;2023-06-19T10:16:03;9.93;;;8.48;;
10761;SDS011;5433;50.862;4.320;2023-06-19T10:18:30;11.25;;;8.70;;
10761;SDS011;5433;50.862;4.320;2023-06-19T10:20:57;10.68;;;9.15;;
10761;SDS011;5433;50.862;4.320;2023-06-19T10:23:26;11.75;;;8.20;;
10761;SDS011;5433;50.862;4.320;2023-06-19T10:28:20;10.75;;;9.60;;
10761;SDS011;5433;50.862;4.320;2023-06-19T10:30:56;10.50;;;9.32;;
10761;SDS011;5433;50.862;4.320;2023-06-19T10:33:24;14.35;;;10.20;;
10761;SDS011;5433;50.862;4.320;2023-06-19T10:35:50;12.07;;;9.95;;
10761;SDS011;5433;50.862;4.320;2023-06-19T10:38:19;12.60;;;9.27;;
10761;SDS011;5433;50.862;4.320;2023-06-19T10:40:45;15.52;;;10.38;;
10761;SDS011;5433;50.862;4.320;2023-06-19T10:43:12;10.73;;;9.02;;
10761;SDS011;5433;50.862;4.320;2023-06-19T10:45:38;12.95;;;9.77;;
10761;SDS011;5433;50.862;4.320;2023-06-19T10:48:05;11.40;;;9.43;;
10761;SDS011;5433;50.862;4.320;2023-06-19T10:50:35;10.65;;;8.70;;
10761;SDS011;5433;50.862;4.320;2023-06-19T10:53:03;11.68;;;8.98;;
10761;SDS011;5433;50.862;4.320;2023-06-19T10:55:29;10.25;;;7.97;;
10761;SDS011;5433;50.862;4.320;2023-06-19T10:57:55;9.75;;;8.63;;
10761;SDS011;5433;50.862;4.320;2023-06-19T11:00:22;11.57;;;8.23;;
10761;SDS011;5433;50.862;4.320;2023-06-19T11:02:48;10.23;;;8.05;;
10761;SDS011;5433;50.862;4.320;2023-06-19T11:05:14;11.43;;;8.25;;
10761;SDS011;5433;50.862;4.320;2023-06-19T11:07:57;10.80;;;9.07;;
10761;SDS011;5433;50.862;4.320;2023-06-19T11:10:29;11.60;;;9.70;;
10761;SDS011;5433;50.862;4.320;2023-06-19T11:12:56;12.35;;;9.55;;
10761;SDS011;5433;50.862;4.320;2023-06-19T11:15:32;11.95;;;8.93;;
10761;SDS011;5433;50.862;4.320;2023-06-19T11:18:02;9.65;;;8.07;;
10761;SDS011;5433;50.862;4.320;2023-06-19T11:20:28;10.27;;;8.80;;
10761;SDS011;5433;50.862;4.320;2023-06-19T11:23:00;11.00;;;9.07;;
10761;SDS011;5433;50.862;4.320;2023-06-19T11:25:36;12.27;;;9.45;;
10761;SDS011;5433;50.862;4.320;2023-06-19T11:28:03;11.55;;;9.18;;
10761;SDS011;5433;50.862;4.320;2023-06-19T11:30:33;11.63;;;10.00;;
10761;SDS011;5433;50.862;4.320;2023-06-19T11:32:59;16.40;;;10.07;;
10761;SDS011;5433;50.862;4.320;2023-06-19T11:35:32;16.38;;;10.50;;
10761;SDS011;5433;50.862;4.320;2023-06-19T11:37:59;16.13;;;10.38;;
10761;SDS011;5433;50.862;4.320;2023-06-19T11:40:25;15.30;;;10.00;;
10761;SDS011;5433;50.862;4.320;2023-06-19T11:42:53;13.32;;;9.70;;
10761;SDS011;5433;50.862;4.320;2023-06-19T11:45:20;13.60;;;10.18;;
10761;SDS011;5433;50.862;4.320;2023-06-19T11:47:46;13.73;;;8.98;;
10761;SDS011;5433;50.862;4.320;2023-06-19T11:50:14;8.13;;;6.80;;
10761;SDS011;5433;50.862;4.320;2023-06-19T11:52:41;8.07;;;6.93;;
10761;SDS011;5433;50.862;4.320;2023-06-19T11:55:08;12.13;;;8.35;;
10761;SDS011;5433;50.862;4.320;2023-06-19T11:57:34;7.70;;;6.90;;
10761;SDS011;5433;50.862;4.320;2023-06-19T12:00:00;12.25;;;9.52;;
10761;SDS011;5433;50.862;4.320;2023-06-19T12:02:28;13.38;;;9.38;;
10761;SDS011;5433;50.862;4.320;2023-06-19T12:04:54;12.77;;;9.50;;
10761;SDS011;5433;50.862;4.320;2023-06-19T12:07:20;10.20;;;8.07;;
10761;SDS011;5433;50.862;4.320;2023-06-19T12:09:47;11.85;;;8.68;;
10761;SDS011;5433;50.862;4.320;2023-06-19T12:12:13;12.10;;;9.00;;
10761;SDS011;5433;50.862;4.320;2023-06-19T12:14:39;13.68;;;9.40;;
10761;SDS011;5433;50.862;4.320;2023-06-19T12:17:05;12.95;;;9.73;;
10761;SDS011;5433;50.862;4.320;2023-06-19T12:19:31;11.63;;;9.20;;
10761;SDS011;5433;50.862;4.320;2023-06-19T12:21:57;11.25;;;8.80;;
10761;SDS011;5433;50.862;4.320;2023-06-19T12:24:24;10.98;;;8.32;;
10761;SDS011;5433;50.862;4.320;2023-06-19T12:26:50;8.40;;;7.25;;
10761;SDS011;5433;50.862;4.320;2023-06-19T12:29:16;8.35;;;7.20;;
10761;SDS011;5433;50.862;4.320;2023-06-19T12:31:43;8.00;;;7.15;;
10761;SDS011;5433;50.862;4.320;2023-06-19T12:34:09;10.35;;;7.78;;
10761;SDS011;5433;50.862;4.320;2023-06-19T12:36:36;10.00;;;7.72;;
10761;SDS011;5433;50.862;4.320;2023-06-19T12:39:02;10.80;;;7.72;;
10761;SDS011;5433;50.862;4.320;2023-06-19T12:41:31;9.23;;;8.07;;
10761;SDS011;5433;50.862;4.320;2023-06-19T12:43:57;10.80;;;8.23;;
10761;SDS011;5433;50.862;4.320;2023-06-19T12:46:23;8.20;;;6.63;;
10761;SDS011;5433;50.862;4.320;2023-06-19T12:48:49;8.23;;;7.10;;
10761;SDS011;5433;50.862;4.320;2023-06-19T12:51:15;7.38;;;6.53;;
10761;SDS011;5433;50.862;4.320;2023-06-19T12:53:41;7.90;;;6.78;;
10761;SDS011;5433;50.862;4.320;2023-06-19T12:56:07;9.20;;;6.85;;
10761;SDS011;5433;50.862;4.320;2023-06-19T12:58:33;9.57;;;6.78;;
10761;SDS011;5433;50.862;4.320;2023-06-19T13:00:59;8.05;;;7.03;;
10761;SDS011;5433;50.862;4.320;2023-06-19T13:03:25;8.73;;;7.10;;
10761;SDS011;5433;50.862;4.320;2023-06-19T13:05:51;10.27;;;7.60;;
10761;SDS011;5433;50.862;4.320;2023-06-19T13:08:17;7.55;;;6.70;;
10761;SDS011;5433;50.862;4.320;2023-06-19T13:10:43;8.90;;;6.60;;
10761;SDS011;5433;50.862;4.320;2023-06-19T13:13:09;7.25;;;6.55;;
10761;SDS011;5433;50.862;4.320;2023-06-19T13:15:35;7.53;;;6.72;;
10761;SDS011;5433;50.862;4.320;2023-06-19T13:18:02;10.05;;;6.50;;
10761;SDS011;5433;50.862;4.320;2023-06-19T13:20:28;7.93;;;6.05;;
10761;SDS011;5433;50.862;4.320;2023-06-19T13:22:54;7.38;;;6.60;;
10761;SDS011;5433;50.862;4.320;2023-06-19T13:25:21;9.48;;;7.07;;
10761;SDS011;5433;50.862;4.320;2023-06-19T13:27:47;9.05;;;6.82;;
10761;SDS011;5433;50.862;4.320;2023-06-19T13:30:13;8.52;;;7.13;;
10761;SDS011;5433;50.862;4.320;2023-06-19T13:32:39;7.93;;;6.75;;
10761;SDS011;5433;50.862;4.320;2023-06-19T13:35:05;14.98;;;13.30;;
10761;SDS011;5433;50.862;4.320;2023-06-19T13:37:33;8.95;;;6.45;;
10761;SDS011;5433;50.862;4.320;2023-06-19T13:40:00;7.38;;;6.18;;
10761;SDS011;5433;50.862;4.320;2023-06-19T13:42:27;6.88;;;6.18;;
10761;SDS011;5433;50.862;4.320;2023-06-19T13:44:53;7.78;;;6.63;;
10761;SDS011;5433;50.862;4.320;2023-06-19T13:47:19;8.02;;;6.38;;
10761;SDS011;5433;50.862;4.320;2023-06-19T13:49:45;8.50;;;6.20;;
10761;SDS011;5433;50.862;4.320;2023-06-19T13:52:11;7.55;;;6.07;;
10761;SDS011;5433;50.862;4.320;2023-06-19T13:54:37;9.05;;;5.88;;
10761;SDS011;5433;50.862;4.320;2023-06-19T13:57:03;7.53;;;5.45;;
10761;SDS011;5433;50.862;4.320;2023-06-19T13:59:30;7.55;;;5.30;;
10761;SDS011;5433;50.862;4.320;2023-06-19T14:01:56;6.80;;;4.97;;
10761;SDS011;5433;50.862;4.320;2023-06-19T14:04:22;6.63;;;5.32;;
10761;SDS011;5433;50.862;4.320;2023-06-19T14:06:48;5.65;;;5.10;;
10761;SDS011;5433;50.862;4.320;2023-06-19T14:09:15;5.90;;;5.15;;
10761;SDS011;5433;50.862;4.320;2023-06-19T14:11:41;5.80;;;5.13;;
10761;SDS011;5433;50.862;4.320;2023-06-19T14:14:09;5.63;;;4.95;;
10761;SDS011;5433;50.862;4.320;2023-06-19T14:16:35;7.40;;;5.30;;
10761;SDS011;5433;50.862;4.320;2023-06-19T14:19:01;4.85;;;4.35;;
10761;SDS011;5433;50.862;4.320;2023-06-19T14:21:27;4.90;;;4.40;;
10761;SDS011;5433;50.862;4.320;2023-06-19T14:23:53;5.43;;;4.57;;
10761;SDS011;5433;50.862;4.320;2023-06-19T14:26:22;5.30;;;4.53;;
10761;SDS011;5433;50.862;4.320;2023-06-19T14:28:48;10.00;;;4.80;;
10761;SDS011;5433;50.862;4.320;2023-06-19T14:31:14;6.57;;;4.50;;
10761;SDS011;5433;50.862;4.320;2023-06-19T14:33:40;5.47;;;4.95;;
10761;SDS011;5433;50.862;4.320;2023-06-19T14:36:06;6.22;;;5.03;;
10761;SDS011;5433;50.862;4.320;2023-06-19T14:38:32;6.53;;;4.85;;
10761;SDS011;5433;50.862;4.320;2023-06-19T14:40:59;5.53;;;4.65;;
10761;SDS011;5433;50.862;4.320;2023-06-19T14:43:26;5.55;;;4.20;;
10761;SDS011;5433;50.862;4.320;2023-06-19T14:45:52;6.10;;;4.70;;
10761;SDS011;5433;50.862;4.320;2023-06-19T14:48:18;5.03;;;4.57;;
10761;SDS011;5433;50.862;4.320;2023-06-19T14:50:44;5.50;;;4.85;;
10761;SDS011;5433;50.862;4.320;2023-06-19T14:53:12;4.90;;;4.47;;
10761;SDS011;5433;50.862;4.320;2023-06-19T14:55:38;5.72;;;4.00;;
10761;SDS011;5433;50.862;4.320;2023-06-19T14:58:10;6.15;;;4.35;;
10761;SDS011;5433;50.862;4.320;2023-06-19T15:00:36;5.07;;;4.57;;
10761;SDS011;5433;50.862;4.320;2023-06-19T15:03:03;4.80;;;4.28;;
10761;SDS011;5433;50.862;4.320;2023-06-19T15:05:29;4.75;;;4.35;;
10761;SDS011;5433;50.862;4.320;2023-06-19T15:07:55;4.60;;;4.20;;